<?xml version="1.0" encoding="UTF-8" standalone="no" ?>
<gpx xmlns="http://www.topografix.com/GPX/1/1" xmlns:xsi="http://www.w3.org/2001/XMLSchema-instance" xsi:schemaLocation="http://www.topografix.com/GPX/1/1 http://www.topografix.com/GPX/1/1/gpx.xsd" version="1.1" creator="VisuGPX - https://www.visugpx.com">
  <metadata>
    <name>Le Bès St-Juéry</name>
    <desc><![CDATA[Lozère entre Aubrac et Margeride Haut Pays de Fournels]]></desc>
  </metadata>
  <trk>
    <name><![CDATA[8582554-6 - Le Bès]]></name>
    <trkseg>
      <trkpt lat="44.82581" lon="3.08513">
        <ele>923</ele>
        <time>2018-04-26T07:14:32Z</time>
      </trkpt>
      <trkpt lat="44.82582" lon="3.08523">
        <ele>923</ele>
        <time>2018-04-26T07:15:32Z</time>
      </trkpt>
      <trkpt lat="44.82576" lon="3.08561">
        <ele>924</ele>
        <time>2018-04-26T07:16:32Z</time>
      </trkpt>
      <trkpt lat="44.8256" lon="3.0861">
        <ele>928</ele>
        <time>2018-04-26T07:17:32Z</time>
      </trkpt>
      <trkpt lat="44.82559" lon="3.08618">
        <ele>928</ele>
        <time>2018-04-26T07:18:32Z</time>
      </trkpt>
      <trkpt lat="44.82563" lon="3.08621">
        <ele>926</ele>
        <time>2018-04-26T07:19:32Z</time>
      </trkpt>
      <trkpt lat="44.82563" lon="3.08621">
        <ele>926</ele>
        <time>2018-04-26T07:20:32Z</time>
      </trkpt>
      <trkpt lat="44.82594" lon="3.08639">
        <ele>921</ele>
        <time>2018-04-26T07:21:32Z</time>
      </trkpt>
      <trkpt lat="44.82635" lon="3.08645">
        <ele>924</ele>
        <time>2018-04-26T07:22:32Z</time>
      </trkpt>
      <trkpt lat="44.82664" lon="3.08637">
        <ele>925</ele>
        <time>2018-04-26T07:23:32Z</time>
      </trkpt>
      <trkpt lat="44.82664" lon="3.08637">
        <ele>925</ele>
        <time>2018-04-26T07:24:32Z</time>
      </trkpt>
      <trkpt lat="44.82669" lon="3.08635">
        <ele>925</ele>
        <time>2018-04-26T07:25:32Z</time>
      </trkpt>
      <trkpt lat="44.82687" lon="3.08615">
        <ele>925</ele>
        <time>2018-04-26T07:26:32Z</time>
      </trkpt>
      <trkpt lat="44.82715" lon="3.0859">
        <ele>926</ele>
        <time>2018-04-26T07:27:32Z</time>
      </trkpt>
      <trkpt lat="44.82726" lon="3.08577">
        <ele>926</ele>
        <time>2018-04-26T07:28:32Z</time>
      </trkpt>
      <trkpt lat="44.82742" lon="3.08554">
        <ele>926</ele>
        <time>2018-04-26T07:29:32Z</time>
      </trkpt>
      <trkpt lat="44.82746" lon="3.08546">
        <ele>926</ele>
        <time>2018-04-26T07:30:32Z</time>
      </trkpt>
      <trkpt lat="44.82746" lon="3.08546">
        <ele>926</ele>
        <time>2018-04-26T07:31:32Z</time>
      </trkpt>
      <trkpt lat="44.82752" lon="3.08534">
        <ele>927</ele>
        <time>2018-04-26T07:32:32Z</time>
      </trkpt>
      <trkpt lat="44.82773" lon="3.08454">
        <ele>932</ele>
        <time>2018-04-26T07:33:32Z</time>
      </trkpt>
      <trkpt lat="44.82776" lon="3.08439">
        <ele>933</ele>
        <time>2018-04-26T07:34:32Z</time>
      </trkpt>
      <trkpt lat="44.82777" lon="3.08425">
        <ele>934</ele>
        <time>2018-04-26T07:35:32Z</time>
      </trkpt>
      <trkpt lat="44.82774" lon="3.08415">
        <ele>933</ele>
        <time>2018-04-26T07:36:32Z</time>
      </trkpt>
      <trkpt lat="44.8277" lon="3.08413">
        <ele>932</ele>
        <time>2018-04-26T07:37:32Z</time>
      </trkpt>
      <trkpt lat="44.82774" lon="3.08405">
        <ele>934</ele>
        <time>2018-04-26T07:38:32Z</time>
      </trkpt>
      <trkpt lat="44.82776" lon="3.08389">
        <ele>936</ele>
        <time>2018-04-26T07:39:32Z</time>
      </trkpt>
      <trkpt lat="44.82773" lon="3.08362">
        <ele>937</ele>
        <time>2018-04-26T07:40:32Z</time>
      </trkpt>
      <trkpt lat="44.82748" lon="3.08219">
        <ele>942</ele>
        <time>2018-04-26T07:41:32Z</time>
      </trkpt>
      <trkpt lat="44.82749" lon="3.08211">
        <ele>943</ele>
        <time>2018-04-26T07:42:32Z</time>
      </trkpt>
      <trkpt lat="44.82749" lon="3.08211">
        <ele>943</ele>
        <time>2018-04-26T07:43:32Z</time>
      </trkpt>
      <trkpt lat="44.8275" lon="3.08202">
        <ele>944</ele>
        <time>2018-04-26T07:44:32Z</time>
      </trkpt>
      <trkpt lat="44.82747" lon="3.08178">
        <ele>947</ele>
        <time>2018-04-26T07:45:32Z</time>
      </trkpt>
      <trkpt lat="44.82749" lon="3.08165">
        <ele>949</ele>
        <time>2018-04-26T07:46:32Z</time>
      </trkpt>
      <trkpt lat="44.82756" lon="3.08156">
        <ele>954</ele>
        <time>2018-04-26T07:47:32Z</time>
      </trkpt>
      <trkpt lat="44.8276" lon="3.08143">
        <ele>957</ele>
        <time>2018-04-26T07:48:32Z</time>
      </trkpt>
      <trkpt lat="44.8276" lon="3.0813">
        <ele>959</ele>
        <time>2018-04-26T07:49:32Z</time>
      </trkpt>
      <trkpt lat="44.82754" lon="3.08104">
        <ele>960</ele>
        <time>2018-04-26T07:50:32Z</time>
      </trkpt>
      <trkpt lat="44.82754" lon="3.08093">
        <ele>962</ele>
        <time>2018-04-26T07:51:32Z</time>
      </trkpt>
      <trkpt lat="44.82756" lon="3.08076">
        <ele>966</ele>
        <time>2018-04-26T07:52:32Z</time>
      </trkpt>
      <trkpt lat="44.82755" lon="3.08068">
        <ele>967</ele>
        <time>2018-04-26T07:53:32Z</time>
      </trkpt>
      <trkpt lat="44.82749" lon="3.0806">
        <ele>966</ele>
        <time>2018-04-26T07:54:32Z</time>
      </trkpt>
      <trkpt lat="44.82746" lon="3.08046">
        <ele>969</ele>
        <time>2018-04-26T07:55:32Z</time>
      </trkpt>
      <trkpt lat="44.82746" lon="3.08028">
        <ele>973</ele>
        <time>2018-04-26T07:56:32Z</time>
      </trkpt>
      <trkpt lat="44.82751" lon="3.08012">
        <ele>979</ele>
        <time>2018-04-26T07:57:32Z</time>
      </trkpt>
      <trkpt lat="44.82751" lon="3.08008">
        <ele>980</ele>
        <time>2018-04-26T07:58:32Z</time>
      </trkpt>
      <trkpt lat="44.82747" lon="3.08001">
        <ele>980</ele>
        <time>2018-04-26T07:59:32Z</time>
      </trkpt>
      <trkpt lat="44.82743" lon="3.07999">
        <ele>979</ele>
        <time>2018-04-26T08:00:32Z</time>
      </trkpt>
      <trkpt lat="44.82735" lon="3.07986">
        <ele>979</ele>
        <time>2018-04-26T08:01:32Z</time>
      </trkpt>
      <trkpt lat="44.82728" lon="3.07978">
        <ele>978</ele>
        <time>2018-04-26T08:02:32Z</time>
      </trkpt>
      <trkpt lat="44.82726" lon="3.07973">
        <ele>978</ele>
        <time>2018-04-26T08:03:32Z</time>
      </trkpt>
      <trkpt lat="44.82723" lon="3.07957">
        <ele>981</ele>
        <time>2018-04-26T08:04:32Z</time>
      </trkpt>
      <trkpt lat="44.8272" lon="3.0795">
        <ele>981</ele>
        <time>2018-04-26T08:05:32Z</time>
      </trkpt>
      <trkpt lat="44.82718" lon="3.0794">
        <ele>982</ele>
        <time>2018-04-26T08:06:32Z</time>
      </trkpt>
      <trkpt lat="44.82714" lon="3.07929">
        <ele>983</ele>
        <time>2018-04-26T08:07:32Z</time>
      </trkpt>
      <trkpt lat="44.82713" lon="3.07924">
        <ele>983</ele>
        <time>2018-04-26T08:08:32Z</time>
      </trkpt>
      <trkpt lat="44.82718" lon="3.07905">
        <ele>990</ele>
        <time>2018-04-26T08:09:32Z</time>
      </trkpt>
      <trkpt lat="44.82718" lon="3.0788">
        <ele>994</ele>
        <time>2018-04-26T08:10:32Z</time>
      </trkpt>
      <trkpt lat="44.82719" lon="3.07873">
        <ele>996</ele>
        <time>2018-04-26T08:11:32Z</time>
      </trkpt>
      <trkpt lat="44.82723" lon="3.07868">
        <ele>999</ele>
        <time>2018-04-26T08:12:32Z</time>
      </trkpt>
      <trkpt lat="44.82723" lon="3.07861">
        <ele>1000</ele>
        <time>2018-04-26T08:13:32Z</time>
      </trkpt>
      <trkpt lat="44.82726" lon="3.07847">
        <ele>1004</ele>
        <time>2018-04-26T08:14:32Z</time>
      </trkpt>
      <trkpt lat="44.82725" lon="3.0784">
        <ele>1005</ele>
        <time>2018-04-26T08:15:32Z</time>
      </trkpt>
      <trkpt lat="44.82727" lon="3.07828">
        <ele>1008</ele>
        <time>2018-04-26T08:16:32Z</time>
      </trkpt>
      <trkpt lat="44.82727" lon="3.07822">
        <ele>1008</ele>
        <time>2018-04-26T08:17:32Z</time>
      </trkpt>
      <trkpt lat="44.82723" lon="3.07814">
        <ele>1008</ele>
        <time>2018-04-26T08:18:32Z</time>
      </trkpt>
      <trkpt lat="44.82723" lon="3.07809">
        <ele>1008</ele>
        <time>2018-04-26T08:19:32Z</time>
      </trkpt>
      <trkpt lat="44.82723" lon="3.07797">
        <ele>1010</ele>
        <time>2018-04-26T08:20:32Z</time>
      </trkpt>
      <trkpt lat="44.82725" lon="3.07791">
        <ele>1012</ele>
        <time>2018-04-26T08:21:32Z</time>
      </trkpt>
      <trkpt lat="44.82721" lon="3.07784">
        <ele>1011</ele>
        <time>2018-04-26T08:22:32Z</time>
      </trkpt>
      <trkpt lat="44.82721" lon="3.0778">
        <ele>1012</ele>
        <time>2018-04-26T08:23:32Z</time>
      </trkpt>
      <trkpt lat="44.82724" lon="3.07772">
        <ele>1014</ele>
        <time>2018-04-26T08:24:32Z</time>
      </trkpt>
      <trkpt lat="44.82725" lon="3.07756">
        <ele>1017</ele>
        <time>2018-04-26T08:25:32Z</time>
      </trkpt>
      <trkpt lat="44.82723" lon="3.07753">
        <ele>1017</ele>
        <time>2018-04-26T08:26:32Z</time>
      </trkpt>
      <trkpt lat="44.82724" lon="3.07741">
        <ele>1018</ele>
        <time>2018-04-26T08:27:32Z</time>
      </trkpt>
      <trkpt lat="44.82722" lon="3.077">
        <ele>1021</ele>
        <time>2018-04-26T08:28:32Z</time>
      </trkpt>
      <trkpt lat="44.82725" lon="3.07681">
        <ele>1024</ele>
        <time>2018-04-26T08:29:32Z</time>
      </trkpt>
      <trkpt lat="44.82727" lon="3.07678">
        <ele>1025</ele>
        <time>2018-04-26T08:30:32Z</time>
      </trkpt>
      <trkpt lat="44.82736" lon="3.07677">
        <ele>1028</ele>
        <time>2018-04-26T08:31:32Z</time>
      </trkpt>
      <trkpt lat="44.82745" lon="3.07671">
        <ele>1031</ele>
        <time>2018-04-26T08:32:32Z</time>
      </trkpt>
      <trkpt lat="44.82759" lon="3.07669">
        <ele>1035</ele>
        <time>2018-04-26T08:33:32Z</time>
      </trkpt>
      <trkpt lat="44.82768" lon="3.07664">
        <ele>1037</ele>
        <time>2018-04-26T08:34:32Z</time>
      </trkpt>
      <trkpt lat="44.82769" lon="3.07661">
        <ele>1037</ele>
        <time>2018-04-26T08:35:32Z</time>
      </trkpt>
      <trkpt lat="44.8277" lon="3.07657">
        <ele>1038</ele>
        <time>2018-04-26T08:36:32Z</time>
      </trkpt>
      <trkpt lat="44.82755" lon="3.07645">
        <ele>1035</ele>
        <time>2018-04-26T08:37:32Z</time>
      </trkpt>
      <trkpt lat="44.82748" lon="3.07628">
        <ele>1035</ele>
        <time>2018-04-26T08:38:32Z</time>
      </trkpt>
      <trkpt lat="44.82749" lon="3.0761">
        <ele>1036</ele>
        <time>2018-04-26T08:39:32Z</time>
      </trkpt>
      <trkpt lat="44.82747" lon="3.07599">
        <ele>1036</ele>
        <time>2018-04-26T08:40:32Z</time>
      </trkpt>
      <trkpt lat="44.8275" lon="3.07586">
        <ele>1038</ele>
        <time>2018-04-26T08:41:32Z</time>
      </trkpt>
      <trkpt lat="44.8275" lon="3.07582">
        <ele>1038</ele>
        <time>2018-04-26T08:42:32Z</time>
      </trkpt>
      <trkpt lat="44.82743" lon="3.07577">
        <ele>1037</ele>
        <time>2018-04-26T08:43:32Z</time>
      </trkpt>
      <trkpt lat="44.82742" lon="3.07566">
        <ele>1037</ele>
        <time>2018-04-26T08:44:32Z</time>
      </trkpt>
      <trkpt lat="44.82745" lon="3.07558">
        <ele>1038</ele>
        <time>2018-04-26T08:45:32Z</time>
      </trkpt>
      <trkpt lat="44.82748" lon="3.07557">
        <ele>1038</ele>
        <time>2018-04-26T08:46:32Z</time>
      </trkpt>
      <trkpt lat="44.82757" lon="3.07562">
        <ele>1040</ele>
        <time>2018-04-26T08:47:32Z</time>
      </trkpt>
      <trkpt lat="44.82766" lon="3.07558">
        <ele>1041</ele>
        <time>2018-04-26T08:48:32Z</time>
      </trkpt>
      <trkpt lat="44.82785" lon="3.07555">
        <ele>1044</ele>
        <time>2018-04-26T08:49:32Z</time>
      </trkpt>
      <trkpt lat="44.82793" lon="3.07544">
        <ele>1045</ele>
        <time>2018-04-26T08:50:32Z</time>
      </trkpt>
      <trkpt lat="44.828" lon="3.07542">
        <ele>1046</ele>
        <time>2018-04-26T08:51:32Z</time>
      </trkpt>
      <trkpt lat="44.82799" lon="3.07514">
        <ele>1045</ele>
        <time>2018-04-26T08:52:32Z</time>
      </trkpt>
      <trkpt lat="44.82799" lon="3.07512">
        <ele>1045</ele>
        <time>2018-04-26T08:53:32Z</time>
      </trkpt>
      <trkpt lat="44.82799" lon="3.07512">
        <ele>1045</ele>
        <time>2018-04-26T08:54:32Z</time>
      </trkpt>
      <trkpt lat="44.82803" lon="3.07507">
        <ele>1046</ele>
        <time>2018-04-26T08:55:32Z</time>
      </trkpt>
      <trkpt lat="44.82809" lon="3.07504">
        <ele>1046</ele>
        <time>2018-04-26T08:56:32Z</time>
      </trkpt>
      <trkpt lat="44.82815" lon="3.07503">
        <ele>1047</ele>
        <time>2018-04-26T08:57:32Z</time>
      </trkpt>
      <trkpt lat="44.82823" lon="3.0751">
        <ele>1048</ele>
        <time>2018-04-26T08:58:32Z</time>
      </trkpt>
      <trkpt lat="44.8284" lon="3.07532">
        <ele>1050</ele>
        <time>2018-04-26T08:59:32Z</time>
      </trkpt>
      <trkpt lat="44.82857" lon="3.07551">
        <ele>1051</ele>
        <time>2018-04-26T09:00:32Z</time>
      </trkpt>
      <trkpt lat="44.82925" lon="3.07617">
        <ele>1055</ele>
        <time>2018-04-26T09:01:32Z</time>
      </trkpt>
      <trkpt lat="44.82946" lon="3.07641">
        <ele>1055</ele>
        <time>2018-04-26T09:02:32Z</time>
      </trkpt>
      <trkpt lat="44.82967" lon="3.07659">
        <ele>1054</ele>
        <time>2018-04-26T09:03:32Z</time>
      </trkpt>
      <trkpt lat="44.82983" lon="3.07676">
        <ele>1054</ele>
        <time>2018-04-26T09:04:32Z</time>
      </trkpt>
      <trkpt lat="44.83004" lon="3.07691">
        <ele>1054</ele>
        <time>2018-04-26T09:05:32Z</time>
      </trkpt>
      <trkpt lat="44.83029" lon="3.0772">
        <ele>1054</ele>
        <time>2018-04-26T09:06:32Z</time>
      </trkpt>
      <trkpt lat="44.83056" lon="3.07744">
        <ele>1053</ele>
        <time>2018-04-26T09:07:32Z</time>
      </trkpt>
      <trkpt lat="44.8307" lon="3.07765">
        <ele>1054</ele>
        <time>2018-04-26T09:08:32Z</time>
      </trkpt>
      <trkpt lat="44.83092" lon="3.07781">
        <ele>1054</ele>
        <time>2018-04-26T09:09:32Z</time>
      </trkpt>
      <trkpt lat="44.83099" lon="3.07791">
        <ele>1054</ele>
        <time>2018-04-26T09:10:32Z</time>
      </trkpt>
      <trkpt lat="44.83106" lon="3.07809">
        <ele>1055</ele>
        <time>2018-04-26T09:11:32Z</time>
      </trkpt>
      <trkpt lat="44.83154" lon="3.07847">
        <ele>1054</ele>
        <time>2018-04-26T09:12:32Z</time>
      </trkpt>
      <trkpt lat="44.83169" lon="3.07857">
        <ele>1053</ele>
        <time>2018-04-26T09:13:32Z</time>
      </trkpt>
      <trkpt lat="44.83178" lon="3.07877">
        <ele>1053</ele>
        <time>2018-04-26T09:14:32Z</time>
      </trkpt>
      <trkpt lat="44.83178" lon="3.07877">
        <ele>1053</ele>
        <time>2018-04-26T09:15:32Z</time>
      </trkpt>
      <trkpt lat="44.83209" lon="3.07917">
        <ele>1051</ele>
        <time>2018-04-26T09:16:32Z</time>
      </trkpt>
      <trkpt lat="44.8322" lon="3.07926">
        <ele>1050</ele>
        <time>2018-04-26T09:17:32Z</time>
      </trkpt>
      <trkpt lat="44.83278" lon="3.07965">
        <ele>1044</ele>
        <time>2018-04-26T09:18:32Z</time>
      </trkpt>
      <trkpt lat="44.83312" lon="3.07999">
        <ele>1038</ele>
        <time>2018-04-26T09:19:32Z</time>
      </trkpt>
      <trkpt lat="44.83318" lon="3.08006">
        <ele>1036</ele>
        <time>2018-04-26T09:20:32Z</time>
      </trkpt>
      <trkpt lat="44.83318" lon="3.08006">
        <ele>1036</ele>
        <time>2018-04-26T09:21:32Z</time>
      </trkpt>
      <trkpt lat="44.8332" lon="3.0801">
        <ele>1035</ele>
        <time>2018-04-26T09:22:32Z</time>
      </trkpt>
      <trkpt lat="44.83313" lon="3.08041">
        <ele>1032</ele>
        <time>2018-04-26T09:23:32Z</time>
      </trkpt>
      <trkpt lat="44.83304" lon="3.08073">
        <ele>1028</ele>
        <time>2018-04-26T09:24:32Z</time>
      </trkpt>
      <trkpt lat="44.83278" lon="3.08138">
        <ele>1025</ele>
        <time>2018-04-26T09:25:32Z</time>
      </trkpt>
      <trkpt lat="44.83245" lon="3.08214">
        <ele>1022</ele>
        <time>2018-04-26T09:26:32Z</time>
      </trkpt>
      <trkpt lat="44.83199" lon="3.08284">
        <ele>1019</ele>
        <time>2018-04-26T09:27:32Z</time>
      </trkpt>
      <trkpt lat="44.83199" lon="3.08284">
        <ele>1019</ele>
        <time>2018-04-26T09:28:32Z</time>
      </trkpt>
      <trkpt lat="44.83194" lon="3.08292">
        <ele>1019</ele>
        <time>2018-04-26T09:29:32Z</time>
      </trkpt>
      <trkpt lat="44.8319" lon="3.08305">
        <ele>1017</ele>
        <time>2018-04-26T09:30:32Z</time>
      </trkpt>
      <trkpt lat="44.83189" lon="3.08321">
        <ele>1015</ele>
        <time>2018-04-26T09:31:32Z</time>
      </trkpt>
      <trkpt lat="44.8319" lon="3.08333">
        <ele>1013</ele>
        <time>2018-04-26T09:32:32Z</time>
      </trkpt>
      <trkpt lat="44.83195" lon="3.08342">
        <ele>1011</ele>
        <time>2018-04-26T09:33:32Z</time>
      </trkpt>
      <trkpt lat="44.83207" lon="3.08349">
        <ele>1010</ele>
        <time>2018-04-26T09:34:32Z</time>
      </trkpt>
      <trkpt lat="44.83207" lon="3.08349">
        <ele>1010</ele>
        <time>2018-04-26T09:35:32Z</time>
      </trkpt>
      <trkpt lat="44.83256" lon="3.08359">
        <ele>1004</ele>
        <time>2018-04-26T09:36:32Z</time>
      </trkpt>
      <trkpt lat="44.83272" lon="3.0836">
        <ele>1003</ele>
        <time>2018-04-26T09:37:32Z</time>
      </trkpt>
      <trkpt lat="44.83301" lon="3.08352">
        <ele>1001</ele>
        <time>2018-04-26T09:38:32Z</time>
      </trkpt>
      <trkpt lat="44.8331" lon="3.08354">
        <ele>1000</ele>
        <time>2018-04-26T09:39:32Z</time>
      </trkpt>
      <trkpt lat="44.83316" lon="3.08364">
        <ele>999</ele>
        <time>2018-04-26T09:40:32Z</time>
      </trkpt>
      <trkpt lat="44.83317" lon="3.08377">
        <ele>997</ele>
        <time>2018-04-26T09:41:32Z</time>
      </trkpt>
      <trkpt lat="44.83314" lon="3.08393">
        <ele>996</ele>
        <time>2018-04-26T09:42:32Z</time>
      </trkpt>
      <trkpt lat="44.83303" lon="3.0842">
        <ele>994</ele>
        <time>2018-04-26T09:43:32Z</time>
      </trkpt>
      <trkpt lat="44.83293" lon="3.08432">
        <ele>993</ele>
        <time>2018-04-26T09:44:32Z</time>
      </trkpt>
      <trkpt lat="44.83279" lon="3.08441">
        <ele>992</ele>
        <time>2018-04-26T09:45:32Z</time>
      </trkpt>
      <trkpt lat="44.83264" lon="3.08446">
        <ele>993</ele>
        <time>2018-04-26T09:46:32Z</time>
      </trkpt>
      <trkpt lat="44.83256" lon="3.08451">
        <ele>992</ele>
        <time>2018-04-26T09:47:32Z</time>
      </trkpt>
      <trkpt lat="44.83246" lon="3.08461">
        <ele>991</ele>
        <time>2018-04-26T09:48:32Z</time>
      </trkpt>
      <trkpt lat="44.83221" lon="3.08508">
        <ele>987</ele>
        <time>2018-04-26T09:49:32Z</time>
      </trkpt>
      <trkpt lat="44.83214" lon="3.08522">
        <ele>985</ele>
        <time>2018-04-26T09:50:32Z</time>
      </trkpt>
      <trkpt lat="44.83204" lon="3.08553">
        <ele>982</ele>
        <time>2018-04-26T09:51:32Z</time>
      </trkpt>
      <trkpt lat="44.83197" lon="3.08566">
        <ele>981</ele>
        <time>2018-04-26T09:52:32Z</time>
      </trkpt>
      <trkpt lat="44.8316" lon="3.08599">
        <ele>979</ele>
        <time>2018-04-26T09:53:32Z</time>
      </trkpt>
      <trkpt lat="44.8316" lon="3.08599">
        <ele>979</ele>
        <time>2018-04-26T09:54:32Z</time>
      </trkpt>
      <trkpt lat="44.83131" lon="3.0861">
        <ele>978</ele>
        <time>2018-04-26T09:55:32Z</time>
      </trkpt>
      <trkpt lat="44.83125" lon="3.08613">
        <ele>978</ele>
        <time>2018-04-26T09:56:32Z</time>
      </trkpt>
      <trkpt lat="44.83122" lon="3.08618">
        <ele>977</ele>
        <time>2018-04-26T09:57:32Z</time>
      </trkpt>
      <trkpt lat="44.83123" lon="3.08626">
        <ele>976</ele>
        <time>2018-04-26T09:58:32Z</time>
      </trkpt>
      <trkpt lat="44.83127" lon="3.08631">
        <ele>976</ele>
        <time>2018-04-26T09:59:32Z</time>
      </trkpt>
      <trkpt lat="44.83146" lon="3.08643">
        <ele>974</ele>
        <time>2018-04-26T10:00:32Z</time>
      </trkpt>
      <trkpt lat="44.8315" lon="3.08653">
        <ele>973</ele>
        <time>2018-04-26T10:01:32Z</time>
      </trkpt>
      <trkpt lat="44.83149" lon="3.08662">
        <ele>972</ele>
        <time>2018-04-26T10:02:32Z</time>
      </trkpt>
      <trkpt lat="44.8314" lon="3.08678">
        <ele>971</ele>
        <time>2018-04-26T10:03:32Z</time>
      </trkpt>
      <trkpt lat="44.8314" lon="3.08678">
        <ele>971</ele>
        <time>2018-04-26T10:04:32Z</time>
      </trkpt>
      <trkpt lat="44.83133" lon="3.08692">
        <ele>970</ele>
        <time>2018-04-26T10:05:32Z</time>
      </trkpt>
      <trkpt lat="44.83125" lon="3.08758">
        <ele>966</ele>
        <time>2018-04-26T10:06:32Z</time>
      </trkpt>
      <trkpt lat="44.8312" lon="3.08781">
        <ele>965</ele>
        <time>2018-04-26T10:07:32Z</time>
      </trkpt>
      <trkpt lat="44.83108" lon="3.08816">
        <ele>964</ele>
        <time>2018-04-26T10:08:32Z</time>
      </trkpt>
      <trkpt lat="44.83096" lon="3.08834">
        <ele>964</ele>
        <time>2018-04-26T10:09:32Z</time>
      </trkpt>
      <trkpt lat="44.83096" lon="3.08834">
        <ele>964</ele>
        <time>2018-04-26T10:10:32Z</time>
      </trkpt>
      <trkpt lat="44.83095" lon="3.08835">
        <ele>964</ele>
        <time>2018-04-26T10:11:32Z</time>
      </trkpt>
      <trkpt lat="44.83087" lon="3.08833">
        <ele>964</ele>
        <time>2018-04-26T10:12:32Z</time>
      </trkpt>
      <trkpt lat="44.83059" lon="3.0881">
        <ele>964</ele>
        <time>2018-04-26T10:13:32Z</time>
      </trkpt>
      <trkpt lat="44.83059" lon="3.0881">
        <ele>964</ele>
        <time>2018-04-26T10:14:32Z</time>
      </trkpt>
      <trkpt lat="44.83055" lon="3.08832">
        <ele>964</ele>
        <time>2018-04-26T10:15:32Z</time>
      </trkpt>
      <trkpt lat="44.83055" lon="3.08862">
        <ele>966</ele>
        <time>2018-04-26T10:16:32Z</time>
      </trkpt>
      <trkpt lat="44.83045" lon="3.08985">
        <ele>971</ele>
        <time>2018-04-26T10:17:32Z</time>
      </trkpt>
      <trkpt lat="44.83044" lon="3.09013">
        <ele>971</ele>
        <time>2018-04-26T10:18:32Z</time>
      </trkpt>
      <trkpt lat="44.83048" lon="3.09023">
        <ele>970</ele>
        <time>2018-04-26T10:19:32Z</time>
      </trkpt>
      <trkpt lat="44.83049" lon="3.09039">
        <ele>970</ele>
        <time>2018-04-26T10:20:32Z</time>
      </trkpt>
      <trkpt lat="44.83049" lon="3.09039">
        <ele>970</ele>
        <time>2018-04-26T10:21:32Z</time>
      </trkpt>
      <trkpt lat="44.83048" lon="3.09053">
        <ele>970</ele>
        <time>2018-04-26T10:22:32Z</time>
      </trkpt>
      <trkpt lat="44.83026" lon="3.09113">
        <ele>970</ele>
        <time>2018-04-26T10:23:32Z</time>
      </trkpt>
      <trkpt lat="44.83013" lon="3.09151">
        <ele>969</ele>
        <time>2018-04-26T10:24:32Z</time>
      </trkpt>
      <trkpt lat="44.83002" lon="3.09203">
        <ele>967</ele>
        <time>2018-04-26T10:25:32Z</time>
      </trkpt>
      <trkpt lat="44.82995" lon="3.09224">
        <ele>966</ele>
        <time>2018-04-26T10:26:32Z</time>
      </trkpt>
      <trkpt lat="44.82983" lon="3.09244">
        <ele>965</ele>
        <time>2018-04-26T10:27:32Z</time>
      </trkpt>
      <trkpt lat="44.82983" lon="3.09244">
        <ele>965</ele>
        <time>2018-04-26T10:28:32Z</time>
      </trkpt>
      <trkpt lat="44.82978" lon="3.0925">
        <ele>964</ele>
        <time>2018-04-26T10:29:32Z</time>
      </trkpt>
      <trkpt lat="44.82975" lon="3.0925">
        <ele>964</ele>
        <time>2018-04-26T10:30:32Z</time>
      </trkpt>
      <trkpt lat="44.82935" lon="3.09248">
        <ele>962</ele>
        <time>2018-04-26T10:31:32Z</time>
      </trkpt>
      <trkpt lat="44.82919" lon="3.09252">
        <ele>961</ele>
        <time>2018-04-26T10:32:32Z</time>
      </trkpt>
      <trkpt lat="44.82899" lon="3.09261">
        <ele>959</ele>
        <time>2018-04-26T10:33:32Z</time>
      </trkpt>
      <trkpt lat="44.82899" lon="3.09261">
        <ele>959</ele>
        <time>2018-04-26T10:34:32Z</time>
      </trkpt>
      <trkpt lat="44.82859" lon="3.09278">
        <ele>952</ele>
        <time>2018-04-26T10:35:32Z</time>
      </trkpt>
      <trkpt lat="44.8285" lon="3.09287">
        <ele>951</ele>
        <time>2018-04-26T10:36:32Z</time>
      </trkpt>
      <trkpt lat="44.82847" lon="3.09299">
        <ele>950</ele>
        <time>2018-04-26T10:37:32Z</time>
      </trkpt>
      <trkpt lat="44.82847" lon="3.09299">
        <ele>950</ele>
        <time>2018-04-26T10:38:32Z</time>
      </trkpt>
      <trkpt lat="44.82843" lon="3.0939">
        <ele>943</ele>
        <time>2018-04-26T10:39:32Z</time>
      </trkpt>
      <trkpt lat="44.82846" lon="3.09404">
        <ele>942</ele>
        <time>2018-04-26T10:40:32Z</time>
      </trkpt>
      <trkpt lat="44.82855" lon="3.09429">
        <ele>939</ele>
        <time>2018-04-26T10:41:32Z</time>
      </trkpt>
      <trkpt lat="44.82857" lon="3.09456">
        <ele>934</ele>
        <time>2018-04-26T10:42:32Z</time>
      </trkpt>
      <trkpt lat="44.82855" lon="3.09476">
        <ele>930</ele>
        <time>2018-04-26T10:43:32Z</time>
      </trkpt>
      <trkpt lat="44.82848" lon="3.09496">
        <ele>927</ele>
        <time>2018-04-26T10:44:32Z</time>
      </trkpt>
      <trkpt lat="44.82842" lon="3.09503">
        <ele>926</ele>
        <time>2018-04-26T10:45:32Z</time>
      </trkpt>
      <trkpt lat="44.82839" lon="3.09502">
        <ele>926</ele>
        <time>2018-04-26T10:46:32Z</time>
      </trkpt>
      <trkpt lat="44.82838" lon="3.09499">
        <ele>927</ele>
        <time>2018-04-26T10:47:32Z</time>
      </trkpt>
      <trkpt lat="44.82838" lon="3.09499">
        <ele>927</ele>
        <time>2018-04-26T10:48:32Z</time>
      </trkpt>
      <trkpt lat="44.82833" lon="3.09497">
        <ele>927</ele>
        <time>2018-04-26T10:49:32Z</time>
      </trkpt>
      <trkpt lat="44.8283" lon="3.09489">
        <ele>928</ele>
        <time>2018-04-26T10:50:32Z</time>
      </trkpt>
      <trkpt lat="44.82831" lon="3.09455">
        <ele>934</ele>
        <time>2018-04-26T10:51:32Z</time>
      </trkpt>
      <trkpt lat="44.82829" lon="3.09439">
        <ele>936</ele>
        <time>2018-04-26T10:52:32Z</time>
      </trkpt>
      <trkpt lat="44.82823" lon="3.09428">
        <ele>936</ele>
        <time>2018-04-26T10:53:32Z</time>
      </trkpt>
      <trkpt lat="44.828" lon="3.09396">
        <ele>933</ele>
        <time>2018-04-26T10:54:32Z</time>
      </trkpt>
      <trkpt lat="44.82797" lon="3.09386">
        <ele>932</ele>
        <time>2018-04-26T10:55:32Z</time>
      </trkpt>
      <trkpt lat="44.82801" lon="3.09372">
        <ele>934</ele>
        <time>2018-04-26T10:56:32Z</time>
      </trkpt>
      <trkpt lat="44.82789" lon="3.09335">
        <ele>932</ele>
        <time>2018-04-26T10:57:32Z</time>
      </trkpt>
      <trkpt lat="44.82778" lon="3.09313">
        <ele>930</ele>
        <time>2018-04-26T10:58:32Z</time>
      </trkpt>
      <trkpt lat="44.82773" lon="3.09302">
        <ele>929</ele>
        <time>2018-04-26T10:59:32Z</time>
      </trkpt>
      <trkpt lat="44.82771" lon="3.09294">
        <ele>929</ele>
        <time>2018-04-26T11:00:32Z</time>
      </trkpt>
      <trkpt lat="44.82771" lon="3.09282">
        <ele>930</ele>
        <time>2018-04-26T11:01:32Z</time>
      </trkpt>
      <trkpt lat="44.82769" lon="3.0927">
        <ele>930</ele>
        <time>2018-04-26T11:02:32Z</time>
      </trkpt>
      <trkpt lat="44.82751" lon="3.09243">
        <ele>927</ele>
        <time>2018-04-26T11:03:32Z</time>
      </trkpt>
      <trkpt lat="44.82751" lon="3.09243">
        <ele>927</ele>
        <time>2018-04-26T11:04:32Z</time>
      </trkpt>
      <trkpt lat="44.82749" lon="3.09232">
        <ele>929</ele>
        <time>2018-04-26T11:05:32Z</time>
      </trkpt>
      <trkpt lat="44.8275" lon="3.09217">
        <ele>931</ele>
        <time>2018-04-26T11:06:32Z</time>
      </trkpt>
      <trkpt lat="44.82749" lon="3.09211">
        <ele>932</ele>
        <time>2018-04-26T11:07:32Z</time>
      </trkpt>
      <trkpt lat="44.82743" lon="3.09204">
        <ele>932</ele>
        <time>2018-04-26T11:08:32Z</time>
      </trkpt>
      <trkpt lat="44.82734" lon="3.09182">
        <ele>934</ele>
        <time>2018-04-26T11:09:32Z</time>
      </trkpt>
      <trkpt lat="44.82713" lon="3.09151">
        <ele>932</ele>
        <time>2018-04-26T11:10:32Z</time>
      </trkpt>
      <trkpt lat="44.82714" lon="3.09129">
        <ele>934</ele>
        <time>2018-04-26T11:11:32Z</time>
      </trkpt>
      <trkpt lat="44.82728" lon="3.09101">
        <ele>940</ele>
        <time>2018-04-26T11:12:32Z</time>
      </trkpt>
      <trkpt lat="44.82733" lon="3.09084">
        <ele>943</ele>
        <time>2018-04-26T11:13:32Z</time>
      </trkpt>
      <trkpt lat="44.82733" lon="3.09065">
        <ele>944</ele>
        <time>2018-04-26T11:14:32Z</time>
      </trkpt>
      <trkpt lat="44.82728" lon="3.09033">
        <ele>944</ele>
        <time>2018-04-26T11:15:32Z</time>
      </trkpt>
      <trkpt lat="44.82722" lon="3.09019">
        <ele>943</ele>
        <time>2018-04-26T11:16:32Z</time>
      </trkpt>
      <trkpt lat="44.82716" lon="3.09011">
        <ele>941</ele>
        <time>2018-04-26T11:17:32Z</time>
      </trkpt>
      <trkpt lat="44.82704" lon="3.08977">
        <ele>938</ele>
        <time>2018-04-26T11:18:32Z</time>
      </trkpt>
      <trkpt lat="44.82701" lon="3.08954">
        <ele>936</ele>
        <time>2018-04-26T11:19:32Z</time>
      </trkpt>
      <trkpt lat="44.82697" lon="3.08934">
        <ele>934</ele>
        <time>2018-04-26T11:20:32Z</time>
      </trkpt>
      <trkpt lat="44.82696" lon="3.08914">
        <ele>933</ele>
        <time>2018-04-26T11:21:32Z</time>
      </trkpt>
      <trkpt lat="44.82714" lon="3.08822">
        <ele>933</ele>
        <time>2018-04-26T11:22:32Z</time>
      </trkpt>
      <trkpt lat="44.82714" lon="3.08822">
        <ele>933</ele>
        <time>2018-04-26T11:23:32Z</time>
      </trkpt>
      <trkpt lat="44.82723" lon="3.08798">
        <ele>935</ele>
        <time>2018-04-26T11:24:32Z</time>
      </trkpt>
      <trkpt lat="44.82729" lon="3.08787">
        <ele>935</ele>
        <time>2018-04-26T11:25:32Z</time>
      </trkpt>
      <trkpt lat="44.82734" lon="3.08763">
        <ele>935</ele>
        <time>2018-04-26T11:26:32Z</time>
      </trkpt>
      <trkpt lat="44.82733" lon="3.08738">
        <ele>934</ele>
        <time>2018-04-26T11:27:32Z</time>
      </trkpt>
      <trkpt lat="44.82724" lon="3.08715">
        <ele>931</ele>
        <time>2018-04-26T11:28:32Z</time>
      </trkpt>
      <trkpt lat="44.82728" lon="3.08715">
        <ele>932</ele>
        <time>2018-04-26T11:29:32Z</time>
      </trkpt>
      <trkpt lat="44.82728" lon="3.08715">
        <ele>932</ele>
        <time>2018-04-26T11:30:32Z</time>
      </trkpt>
      <trkpt lat="44.82714" lon="3.08716">
        <ele>930</ele>
        <time>2018-04-26T11:31:32Z</time>
      </trkpt>
      <trkpt lat="44.82703" lon="3.08709">
        <ele>929</ele>
        <time>2018-04-26T11:32:32Z</time>
      </trkpt>
      <trkpt lat="44.82696" lon="3.08702">
        <ele>928</ele>
        <time>2018-04-26T11:33:32Z</time>
      </trkpt>
      <trkpt lat="44.82674" lon="3.08727">
        <ele>926</ele>
        <time>2018-04-26T11:34:32Z</time>
      </trkpt>
      <trkpt lat="44.82663" lon="3.08728">
        <ele>925</ele>
        <time>2018-04-26T11:35:32Z</time>
      </trkpt>
      <trkpt lat="44.82662" lon="3.08726">
        <ele>925</ele>
        <time>2018-04-26T11:36:32Z</time>
      </trkpt>
      <trkpt lat="44.82662" lon="3.08726">
        <ele>925</ele>
        <time>2018-04-26T11:37:32Z</time>
      </trkpt>
      <trkpt lat="44.82659" lon="3.08721">
        <ele>925</ele>
        <time>2018-04-26T11:38:32Z</time>
      </trkpt>
      <trkpt lat="44.82642" lon="3.08675">
        <ele>925</ele>
        <time>2018-04-26T11:39:32Z</time>
      </trkpt>
      <trkpt lat="44.82638" lon="3.0865">
        <ele>924</ele>
        <time>2018-04-26T11:40:32Z</time>
      </trkpt>
      <trkpt lat="44.82635" lon="3.08645">
        <ele>924</ele>
        <time>2018-04-26T11:41:32Z</time>
      </trkpt>
      <trkpt lat="44.82637" lon="3.08644">
        <ele>924</ele>
        <time>2018-04-26T11:42:32Z</time>
      </trkpt>
      <trkpt lat="44.82637" lon="3.08644">
        <ele>924</ele>
        <time>2018-04-26T11:43:32Z</time>
      </trkpt>
      <trkpt lat="44.82594" lon="3.08639">
        <ele>921</ele>
        <time>2018-04-26T11:44:32Z</time>
      </trkpt>
      <trkpt lat="44.82559" lon="3.08618">
        <ele>928</ele>
        <time>2018-04-26T11:45:32Z</time>
      </trkpt>
      <trkpt lat="44.8256" lon="3.0861">
        <ele>928</ele>
        <time>2018-04-26T11:46:32Z</time>
      </trkpt>
      <trkpt lat="44.82576" lon="3.08561">
        <ele>924</ele>
        <time>2018-04-26T11:47:32Z</time>
      </trkpt>
      <trkpt lat="44.82582" lon="3.08523">
        <ele>923</ele>
        <time>2018-04-26T11:48:32Z</time>
      </trkpt>
      <trkpt lat="44.82581" lon="3.08508">
        <ele>923</ele>
        <time>2018-04-26T11:49:32Z</time>
      </trkpt>
    </trkseg>
  </trk>
</gpx>